sensor_id;sensor_type;location;lat;lon;timestamp;P1;durP1;ratioP1;P2;durP2;ratioP2
3280;SDS011;1652;51.318;6.202;2023-02-08T00:02:02;13.50;;;8.67;;
3280;SDS011;1652;51.318;6.202;2023-02-08T00:04:28;8.40;;;7.37;;
3280;SDS011;1652;51.318;6.202;2023-02-08T00:06:55;13.30;;;8.63;;
3280;SDS011;1652;51.318;6.202;2023-02-08T00:09:22;8.93;;;7.40;;
3280;SDS011;1652;51.318;6.202;2023-02-08T00:11:49;20.10;;;7.30;;
3280;SDS011;1652;51.318;6.202;2023-02-08T00:14:16;11.97;;;7.23;;
3280;SDS011;1652;51.318;6.202;2023-02-08T00:16:42;10.73;;;7.73;;
3280;SDS011;1652;51.318;6.202;2023-02-08T00:19:09;9.53;;;7.20;;
3280;SDS011;1652;51.318;6.202;2023-02-08T00:21:36;10.13;;;7.13;;
3280;SDS011;1652;51.318;6.202;2023-02-08T00:24:03;8.37;;;7.20;;
3280;SDS011;1652;51.318;6.202;2023-02-08T00:26:30;9.60;;;7.83;;
3280;SDS011;1652;51.318;6.202;2023-02-08T00:28:57;11.40;;;7.47;;
3280;SDS011;1652;51.318;6.202;2023-02-08T00:31:24;10.00;;;7.13;;
3280;SDS011;1652;51.318;6.202;2023-02-08T00:33:54;6.97;;;6.33;;
3280;SDS011;1652;51.318;6.202;2023-02-08T00:36:21;12.10;;;7.77;;
3280;SDS011;1652;51.318;6.202;2023-02-08T00:38:48;14.03;;;7.77;;
3280;SDS011;1652;51.318;6.202;2023-02-08T00:41:14;18.50;;;8.00;;
3280;SDS011;1652;51.318;6.202;2023-02-08T00:43:41;9.70;;;7.10;;
3280;SDS011;1652;51.318;6.202;2023-02-08T00:46:08;8.73;;;7.53;;
3280;SDS011;1652;51.318;6.202;2023-02-08T00:48:35;7.97;;;7.03;;
3280;SDS011;1652;51.318;6.202;2023-02-08T00:51:06;10.40;;;7.70;;
3280;SDS011;1652;51.318;6.202;2023-02-08T00:53:38;9.60;;;7.80;;
3280;SDS011;1652;51.318;6.202;2023-02-08T00:56:06;17.73;;;7.73;;
3280;SDS011;1652;51.318;6.202;2023-02-08T00:58:34;10.23;;;7.40;;
3280;SDS011;1652;51.318;6.202;2023-02-08T01:01:02;12.47;;;7.37;;
3280;SDS011;1652;51.318;6.202;2023-02-08T01:03:31;12.67;;;7.70;;
3280;SDS011;1652;51.318;6.202;2023-02-08T01:06:00;11.70;;;7.80;;
3280;SDS011;1652;51.318;6.202;2023-02-08T01:08:31;11.67;;;7.23;;
3280;SDS011;1652;51.318;6.202;2023-02-08T01:11:06;9.87;;;7.17;;
3280;SDS011;1652;51.318;6.202;2023-02-08T01:13:36;9.60;;;7.40;;
3280;SDS011;1652;51.318;6.202;2023-02-08T01:16:13;8.20;;;6.80;;
3280;SDS011;1652;51.318;6.202;2023-02-08T01:18:44;12.13;;;7.73;;
3280;SDS011;1652;51.318;6.202;2023-02-08T01:21:14;9.70;;;7.20;;
3280;SDS011;1652;51.318;6.202;2023-02-08T01:23:43;9.00;;;7.10;;
3280;SDS011;1652;51.318;6.202;2023-02-08T01:26:11;8.67;;;7.33;;
3280;SDS011;1652;51.318;6.202;2023-02-08T01:28:39;8.70;;;7.17;;
3280;SDS011;1652;51.318;6.202;2023-02-08T01:31:07;8.67;;;7.50;;
3280;SDS011;1652;51.318;6.202;2023-02-08T01:33:36;11.50;;;7.60;;
3280;SDS011;1652;51.318;6.202;2023-02-08T01:36:03;12.20;;;8.03;;
3280;SDS011;1652;51.318;6.202;2023-02-08T01:38:30;11.40;;;8.77;;
3280;SDS011;1652;51.318;6.202;2023-02-08T01:40:58;9.40;;;7.20;;
3280;SDS011;1652;51.318;6.202;2023-02-08T01:43:26;14.03;;;7.30;;
3280;SDS011;1652;51.318;6.202;2023-02-08T01:45:55;8.20;;;7.13;;
3280;SDS011;1652;51.318;6.202;2023-02-08T01:48:23;10.17;;;7.20;;
3280;SDS011;1652;51.318;6.202;2023-02-08T01:50:58;12.00;;;7.87;;
3280;SDS011;1652;51.318;6.202;2023-02-08T01:53:30;11.30;;;7.70;;
3280;SDS011;1652;51.318;6.202;2023-02-08T01:56:00;12.13;;;7.63;;
3280;SDS011;1652;51.318;6.202;2023-02-08T01:58:31;11.83;;;7.37;;
3280;SDS011;1652;51.318;6.202;2023-02-08T02:01:01;8.90;;;7.73;;
3280;SDS011;1652;51.318;6.202;2023-02-08T02:03:29;12.50;;;8.70;;
3280;SDS011;1652;51.318;6.202;2023-02-08T02:05:58;10.57;;;7.77;;
3280;SDS011;1652;51.318;6.202;2023-02-08T02:08:30;8.93;;;7.40;;
3280;SDS011;1652;51.318;6.202;2023-02-08T02:10:57;12.73;;;7.70;;
3280;SDS011;1652;51.318;6.202;2023-02-08T02:13:25;9.40;;;7.73;;
3280;SDS011;1652;51.318;6.202;2023-02-08T02:15:53;10.53;;;7.33;;
3280;SDS011;1652;51.318;6.202;2023-02-08T02:18:24;9.63;;;7.13;;
3280;SDS011;1652;51.318;6.202;2023-02-08T02:27:05;10.23;;;7.47;;
3280;SDS011;1652;51.318;6.202;2023-02-08T02:29:51;9.70;;;7.53;;
3280;SDS011;1652;51.318;6.202;2023-02-08T02:33:01;8.07;;;7.27;;
3280;SDS011;1652;51.318;6.202;2023-02-08T02:35:51;12.10;;;8.07;;
3280;SDS011;1652;51.318;6.202;2023-02-08T02:38:40;15.60;;;7.30;;
3280;SDS011;1652;51.318;6.202;2023-02-08T02:41:25;11.73;;;7.60;;
3280;SDS011;1652;51.318;6.202;2023-02-08T02:47:36;11.77;;;7.43;;
3280;SDS011;1652;51.318;6.202;2023-02-08T02:52:50;10.77;;;7.30;;
3280;SDS011;1652;51.318;6.202;2023-02-08T02:55:28;10.93;;;7.63;;
3280;SDS011;1652;51.318;6.202;2023-02-08T02:58:01;9.50;;;7.50;;
3280;SDS011;1652;51.318;6.202;2023-02-08T03:00:30;6.60;;;6.00;;
3280;SDS011;1652;51.318;6.202;2023-02-08T03:02:59;7.87;;;7.10;;
3280;SDS011;1652;51.318;6.202;2023-02-08T03:05:25;9.23;;;7.23;;
3280;SDS011;1652;51.318;6.202;2023-02-08T03:16:26;9.43;;;7.23;;
3280;SDS011;1652;51.318;6.202;2023-02-08T03:21:37;9.57;;;6.80;;
3280;SDS011;1652;51.318;6.202;2023-02-08T03:24:21;8.90;;;6.47;;
3280;SDS011;1652;51.318;6.202;2023-02-08T03:27:07;9.43;;;6.57;;
3280;SDS011;1652;51.318;6.202;2023-02-08T03:32:37;14.77;;;7.40;;
3280;SDS011;1652;51.318;6.202;2023-02-08T03:35:10;10.07;;;6.90;;
3280;SDS011;1652;51.318;6.202;2023-02-08T03:37:47;10.00;;;7.67;;
3280;SDS011;1652;51.318;6.202;2023-02-08T03:40:26;10.30;;;7.33;;
3280;SDS011;1652;51.318;6.202;2023-02-08T03:42:56;6.97;;;6.37;;
3280;SDS011;1652;51.318;6.202;2023-02-08T03:45:34;11.27;;;6.80;;
3280;SDS011;1652;51.318;6.202;2023-02-08T03:48:06;9.23;;;7.33;;
3280;SDS011;1652;51.318;6.202;2023-02-08T03:50:35;23.17;;;8.07;;
3280;SDS011;1652;51.318;6.202;2023-02-08T03:53:05;11.57;;;7.23;;
3280;SDS011;1652;51.318;6.202;2023-02-08T03:55:34;6.83;;;6.20;;
3280;SDS011;1652;51.318;6.202;2023-02-08T03:58:06;7.70;;;6.93;;
3280;SDS011;1652;51.318;6.202;2023-02-08T04:00:42;9.80;;;6.83;;
3280;SDS011;1652;51.318;6.202;2023-02-08T04:03:23;9.70;;;7.87;;
3280;SDS011;1652;51.318;6.202;2023-02-08T04:05:52;12.67;;;7.67;;
3280;SDS011;1652;51.318;6.202;2023-02-08T04:08:20;8.20;;;6.20;;
3280;SDS011;1652;51.318;6.202;2023-02-08T04:10:47;7.17;;;6.47;;
3280;SDS011;1652;51.318;6.202;2023-02-08T04:13:14;8.13;;;7.23;;
3280;SDS011;1652;51.318;6.202;2023-02-08T04:15:41;8.43;;;6.50;;
3280;SDS011;1652;51.318;6.202;2023-02-08T04:18:09;8.60;;;7.20;;
3280;SDS011;1652;51.318;6.202;2023-02-08T04:20:36;9.47;;;6.70;;
3280;SDS011;1652;51.318;6.202;2023-02-08T04:23:03;9.80;;;7.60;;
3280;SDS011;1652;51.318;6.202;2023-02-08T04:25:30;12.57;;;7.30;;
3280;SDS011;1652;51.318;6.202;2023-02-08T04:27:57;9.27;;;8.23;;
3280;SDS011;1652;51.318;6.202;2023-02-08T04:30:25;12.23;;;7.30;;
3280;SDS011;1652;51.318;6.202;2023-02-08T04:32:52;8.30;;;7.50;;
3280;SDS011;1652;51.318;6.202;2023-02-08T04:35:19;8.00;;;7.13;;
3280;SDS011;1652;51.318;6.202;2023-02-08T04:37:46;13.10;;;7.77;;
3280;SDS011;1652;51.318;6.202;2023-02-08T04:40:13;10.80;;;7.27;;
3280;SDS011;1652;51.318;6.202;2023-02-08T04:42:40;9.53;;;7.90;;
3280;SDS011;1652;51.318;6.202;2023-02-08T04:45:07;13.60;;;7.50;;
3280;SDS011;1652;51.318;6.202;2023-02-08T04:47:34;11.80;;;8.00;;
3280;SDS011;1652;51.318;6.202;2023-02-08T04:50:01;8.93;;;7.40;;
3280;SDS011;1652;51.318;6.202;2023-02-08T04:52:28;7.47;;;6.43;;
3280;SDS011;1652;51.318;6.202;2023-02-08T04:54:55;11.33;;;7.77;;
3280;SDS011;1652;51.318;6.202;2023-02-08T04:57:22;9.00;;;6.83;;
3280;SDS011;1652;51.318;6.202;2023-02-08T04:59:48;10.10;;;7.97;;
3280;SDS011;1652;51.318;6.202;2023-02-08T05:02:15;10.20;;;7.23;;
3280;SDS011;1652;51.318;6.202;2023-02-08T05:04:42;12.20;;;8.10;;
3280;SDS011;1652;51.318;6.202;2023-02-08T05:07:09;9.80;;;7.00;;
3280;SDS011;1652;51.318;6.202;2023-02-08T05:09:36;9.67;;;7.57;;
3280;SDS011;1652;51.318;6.202;2023-02-08T05:12:02;10.53;;;7.90;;
3280;SDS011;1652;51.318;6.202;2023-02-08T05:14:29;13.40;;;8.27;;
3280;SDS011;1652;51.318;6.202;2023-02-08T05:16:56;8.73;;;7.27;;
3280;SDS011;1652;51.318;6.202;2023-02-08T05:19:23;6.80;;;6.10;;
3280;SDS011;1652;51.318;6.202;2023-02-08T05:21:50;11.20;;;7.40;;
3280;SDS011;1652;51.318;6.202;2023-02-08T05:24:17;7.83;;;6.57;;
3280;SDS011;1652;51.318;6.202;2023-02-08T05:26:44;19.97;;;6.93;;
3280;SDS011;1652;51.318;6.202;2023-02-08T05:29:10;8.80;;;7.07;;
3280;SDS011;1652;51.318;6.202;2023-02-08T05:31:37;8.17;;;7.37;;
3280;SDS011;1652;51.318;6.202;2023-02-08T05:34:04;11.33;;;9.10;;
3280;SDS011;1652;51.318;6.202;2023-02-08T05:36:31;8.03;;;7.10;;
3280;SDS011;1652;51.318;6.202;2023-02-08T05:39:01;8.20;;;7.33;;
3280;SDS011;1652;51.318;6.202;2023-02-08T05:41:27;8.37;;;7.47;;
3280;SDS011;1652;51.318;6.202;2023-02-08T05:43:54;21.87;;;7.80;;
3280;SDS011;1652;51.318;6.202;2023-02-08T05:46:21;8.73;;;7.80;;
3280;SDS011;1652;51.318;6.202;2023-02-08T05:48:48;8.43;;;7.63;;
3280;SDS011;1652;51.318;6.202;2023-02-08T05:51:15;9.87;;;7.47;;
3280;SDS011;1652;51.318;6.202;2023-02-08T05:53:41;10.43;;;7.60;;
3280;SDS011;1652;51.318;6.202;2023-02-08T05:56:09;13.93;;;7.83;;
3280;SDS011;1652;51.318;6.202;2023-02-08T05:58:36;17.00;;;7.97;;
3280;SDS011;1652;51.318;6.202;2023-02-08T06:01:07;8.90;;;6.80;;
3280;SDS011;1652;51.318;6.202;2023-02-08T06:03:38;7.90;;;7.07;;
3280;SDS011;1652;51.318;6.202;2023-02-08T06:06:05;11.30;;;7.60;;
3280;SDS011;1652;51.318;6.202;2023-02-08T06:08:32;6.90;;;6.27;;
3280;SDS011;1652;51.318;6.202;2023-02-08T06:10:59;12.43;;;7.77;;
3280;SDS011;1652;51.318;6.202;2023-02-08T06:13:26;12.90;;;7.20;;
3280;SDS011;1652;51.318;6.202;2023-02-08T06:15:54;12.10;;;9.00;;
3280;SDS011;1652;51.318;6.202;2023-02-08T06:18:21;8.07;;;7.13;;
3280;SDS011;1652;51.318;6.202;2023-02-08T06:20:51;7.63;;;6.50;;
3280;SDS011;1652;51.318;6.202;2023-02-08T06:23:19;15.90;;;7.80;;
3280;SDS011;1652;51.318;6.202;2023-02-08T06:25:46;9.23;;;7.70;;
3280;SDS011;1652;51.318;6.202;2023-02-08T06:28:13;12.27;;;8.07;;
3280;SDS011;1652;51.318;6.202;2023-02-08T06:30:40;13.33;;;7.47;;
3280;SDS011;1652;51.318;6.202;2023-02-08T06:33:07;11.90;;;7.83;;
3280;SDS011;1652;51.318;6.202;2023-02-08T06:35:34;10.30;;;6.80;;
3280;SDS011;1652;51.318;6.202;2023-02-08T06:38:01;16.33;;;7.40;;
3280;SDS011;1652;51.318;6.202;2023-02-08T06:40:27;15.47;;;8.17;;
3280;SDS011;1652;51.318;6.202;2023-02-08T06:42:54;9.80;;;6.83;;
3280;SDS011;1652;51.318;6.202;2023-02-08T06:45:21;11.50;;;8.47;;
3280;SDS011;1652;51.318;6.202;2023-02-08T06:47:47;10.23;;;7.47;;
3280;SDS011;1652;51.318;6.202;2023-02-08T06:50:14;10.57;;;8.03;;
3280;SDS011;1652;51.318;6.202;2023-02-08T06:52:41;8.13;;;6.80;;
3280;SDS011;1652;51.318;6.202;2023-02-08T06:55:08;9.40;;;7.63;;
3280;SDS011;1652;51.318;6.202;2023-02-08T06:57:35;10.20;;;8.03;;
3280;SDS011;1652;51.318;6.202;2023-02-08T07:00:02;13.73;;;7.80;;
3280;SDS011;1652;51.318;6.202;2023-02-08T07:02:30;13.17;;;7.63;;
3280;SDS011;1652;51.318;6.202;2023-02-08T07:04:57;9.43;;;7.77;;
3280;SDS011;1652;51.318;6.202;2023-02-08T07:07:24;8.87;;;7.70;;
3280;SDS011;1652;51.318;6.202;2023-02-08T07:09:51;10.00;;;7.37;;
3280;SDS011;1652;51.318;6.202;2023-02-08T07:12:18;9.70;;;7.57;;
3280;SDS011;1652;51.318;6.202;2023-02-08T07:14:45;12.50;;;7.63;;
3280;SDS011;1652;51.318;6.202;2023-02-08T07:17:12;10.73;;;7.90;;
3280;SDS011;1652;51.318;6.202;2023-02-08T07:19:39;9.50;;;7.90;;
3280;SDS011;1652;51.318;6.202;2023-02-08T07:22:06;12.43;;;8.77;;
3280;SDS011;1652;51.318;6.202;2023-02-08T07:24:36;12.87;;;8.13;;
3280;SDS011;1652;51.318;6.202;2023-02-08T07:27:05;16.03;;;9.30;;
3280;SDS011;1652;51.318;6.202;2023-02-08T07:29:33;12.43;;;8.77;;
3280;SDS011;1652;51.318;6.202;2023-02-08T07:32:01;12.00;;;8.80;;
3280;SDS011;1652;51.318;6.202;2023-02-08T07:34:34;14.13;;;8.13;;
3280;SDS011;1652;51.318;6.202;2023-02-08T07:37:02;12.23;;;8.60;;
3280;SDS011;1652;51.318;6.202;2023-02-08T07:39:29;10.20;;;8.03;;
3280;SDS011;1652;51.318;6.202;2023-02-08T07:41:57;10.20;;;7.70;;
3280;SDS011;1652;51.318;6.202;2023-02-08T07:44:24;16.77;;;9.23;;
3280;SDS011;1652;51.318;6.202;2023-02-08T07:46:51;11.13;;;8.30;;
3280;SDS011;1652;51.318;6.202;2023-02-08T07:49:18;14.50;;;8.80;;
3280;SDS011;1652;51.318;6.202;2023-02-08T07:51:44;10.37;;;7.67;;
3280;SDS011;1652;51.318;6.202;2023-02-08T07:54:11;16.33;;;8.90;;
3280;SDS011;1652;51.318;6.202;2023-02-08T07:56:38;13.03;;;8.20;;
3280;SDS011;1652;51.318;6.202;2023-02-08T07:59:05;10.33;;;8.13;;
3280;SDS011;1652;51.318;6.202;2023-02-08T08:01:32;12.07;;;8.80;;
3280;SDS011;1652;51.318;6.202;2023-02-08T08:03:58;12.00;;;8.83;;
3280;SDS011;1652;51.318;6.202;2023-02-08T08:06:25;11.90;;;8.60;;
3280;SDS011;1652;51.318;6.202;2023-02-08T08:08:52;18.23;;;9.10;;
3280;SDS011;1652;51.318;6.202;2023-02-08T08:11:19;12.00;;;9.03;;
3280;SDS011;1652;51.318;6.202;2023-02-08T08:13:47;19.97;;;8.87;;
3280;SDS011;1652;51.318;6.202;2023-02-08T08:16:14;10.00;;;7.87;;
3280;SDS011;1652;51.318;6.202;2023-02-08T08:18:41;22.20;;;8.60;;
3280;SDS011;1652;51.318;6.202;2023-02-08T08:21:08;9.93;;;8.20;;
3280;SDS011;1652;51.318;6.202;2023-02-08T08:23:36;17.20;;;8.60;;
3280;SDS011;1652;51.318;6.202;2023-02-08T08:26:10;12.57;;;8.73;;
3280;SDS011;1652;51.318;6.202;2023-02-08T08:28:39;18.10;;;9.47;;
3280;SDS011;1652;51.318;6.202;2023-02-08T08:31:10;18.20;;;9.03;;
3280;SDS011;1652;51.318;6.202;2023-02-08T08:33:39;11.13;;;8.77;;
3280;SDS011;1652;51.318;6.202;2023-02-08T08:36:09;13.20;;;9.00;;
3280;SDS011;1652;51.318;6.202;2023-02-08T08:38:36;14.00;;;9.17;;
3280;SDS011;1652;51.318;6.202;2023-02-08T08:41:11;11.10;;;8.10;;
3280;SDS011;1652;51.318;6.202;2023-02-08T08:43:40;22.80;;;9.10;;
3280;SDS011;1652;51.318;6.202;2023-02-08T08:46:07;11.40;;;9.13;;
3280;SDS011;1652;51.318;6.202;2023-02-08T08:48:35;9.13;;;7.80;;
3280;SDS011;1652;51.318;6.202;2023-02-08T08:51:04;12.50;;;8.63;;
3280;SDS011;1652;51.318;6.202;2023-02-08T08:53:31;12.67;;;8.53;;
3280;SDS011;1652;51.318;6.202;2023-02-08T08:55:58;11.13;;;8.00;;
3280;SDS011;1652;51.318;6.202;2023-02-08T08:58:25;10.43;;;8.37;;
3280;SDS011;1652;51.318;6.202;2023-02-08T09:00:53;9.67;;;7.30;;
3280;SDS011;1652;51.318;6.202;2023-02-08T09:03:22;13.07;;;7.80;;
3280;SDS011;1652;51.318;6.202;2023-02-08T09:05:49;12.73;;;6.90;;
3280;SDS011;1652;51.318;6.202;2023-02-08T09:08:16;11.27;;;8.73;;
3280;SDS011;1652;51.318;6.202;2023-02-08T09:10:43;13.90;;;7.97;;
3280;SDS011;1652;51.318;6.202;2023-02-08T09:13:10;8.30;;;7.47;;
3280;SDS011;1652;51.318;6.202;2023-02-08T09:15:44;12.77;;;7.87;;
3280;SDS011;1652;51.318;6.202;2023-02-08T09:18:12;9.57;;;7.17;;
3280;SDS011;1652;51.318;6.202;2023-02-08T09:20:39;10.20;;;7.37;;
3280;SDS011;1652;51.318;6.202;2023-02-08T09:23:07;11.60;;;8.50;;
3280;SDS011;1652;51.318;6.202;2023-02-08T09:25:34;11.43;;;8.00;;
3280;SDS011;1652;51.318;6.202;2023-02-08T09:28:02;11.70;;;8.57;;
3280;SDS011;1652;51.318;6.202;2023-02-08T09:30:29;21.23;;;8.70;;
3280;SDS011;1652;51.318;6.202;2023-02-08T09:32:56;9.57;;;7.80;;
3280;SDS011;1652;51.318;6.202;2023-02-08T09:35:23;12.23;;;8.90;;
3280;SDS011;1652;51.318;6.202;2023-02-08T09:37:53;16.30;;;8.87;;
3280;SDS011;1652;51.318;6.202;2023-02-08T09:40:23;9.90;;;7.80;;
3280;SDS011;1652;51.318;6.202;2023-02-08T09:43:03;11.50;;;7.70;;
3280;SDS011;1652;51.318;6.202;2023-02-08T09:45:56;12.70;;;8.60;;
3280;SDS011;1652;51.318;6.202;2023-02-08T09:48:33;8.47;;;7.57;;
3280;SDS011;1652;51.318;6.202;2023-02-08T09:53:59;12.30;;;8.30;;
3280;SDS011;1652;51.318;6.202;2023-02-08T09:56:34;9.67;;;7.67;;
3280;SDS011;1652;51.318;6.202;2023-02-08T09:59:07;12.60;;;7.30;;
3280;SDS011;1652;51.318;6.202;2023-02-08T10:01:41;10.10;;;8.37;;
3280;SDS011;1652;51.318;6.202;2023-02-08T10:04:29;11.03;;;7.53;;
3280;SDS011;1652;51.318;6.202;2023-02-08T10:06:58;13.80;;;7.93;;
3280;SDS011;1652;51.318;6.202;2023-02-08T10:09:25;11.40;;;7.90;;
3280;SDS011;1652;51.318;6.202;2023-02-08T10:11:56;9.90;;;7.47;;
3280;SDS011;1652;51.318;6.202;2023-02-08T10:17:30;12.00;;;7.77;;
3280;SDS011;1652;51.318;6.202;2023-02-08T10:23:16;8.43;;;6.40;;
3280;SDS011;1652;51.318;6.202;2023-02-08T10:34:32;7.13;;;6.43;;
3280;SDS011;1652;51.318;6.202;2023-02-08T10:37:31;7.00;;;6.30;;
3280;SDS011;1652;51.318;6.202;2023-02-08T10:43:05;5.97;;;5.47;;
3280;SDS011;1652;51.318;6.202;2023-02-08T10:46:25;5.70;;;5.10;;
3280;SDS011;1652;51.318;6.202;2023-02-08T10:49:16;13.13;;;5.73;;
3280;SDS011;1652;51.318;6.202;2023-02-08T10:51:53;5.20;;;4.80;;
3280;SDS011;1652;51.318;6.202;2023-02-08T10:54:20;5.80;;;5.30;;
3280;SDS011;1652;51.318;6.202;2023-02-08T10:56:51;7.70;;;6.00;;
3280;SDS011;1652;51.318;6.202;2023-02-08T10:59:30;14.87;;;6.40;;
3280;SDS011;1652;51.318;6.202;2023-02-08T11:02:02;6.17;;;5.57;;
3280;SDS011;1652;51.318;6.202;2023-02-08T11:04:59;5.90;;;5.37;;
3280;SDS011;1652;51.318;6.202;2023-02-08T11:07:33;5.43;;;4.97;;
3280;SDS011;1652;51.318;6.202;2023-02-08T11:13:01;6.77;;;6.03;;
3280;SDS011;1652;51.318;6.202;2023-02-08T11:15:46;6.97;;;5.80;;
3280;SDS011;1652;51.318;6.202;2023-02-08T11:18:18;7.33;;;5.30;;
3280;SDS011;1652;51.318;6.202;2023-02-08T11:20:57;7.57;;;6.23;;
3280;SDS011;1652;51.318;6.202;2023-02-08T11:23:32;10.63;;;5.57;;
3280;SDS011;1652;51.318;6.202;2023-02-08T11:29:11;6.70;;;5.07;;
3280;SDS011;1652;51.318;6.202;2023-02-08T11:31:39;10.40;;;5.17;;
3280;SDS011;1652;51.318;6.202;2023-02-08T11:34:34;6.27;;;5.20;;
3280;SDS011;1652;51.318;6.202;2023-02-08T11:37:12;5.90;;;5.30;;
3280;SDS011;1652;51.318;6.202;2023-02-08T11:42:55;6.00;;;5.50;;
3280;SDS011;1652;51.318;6.202;2023-02-08T11:45:00;5.67;;;5.20;;
3280;SDS011;1652;51.318;6.202;2023-02-08T11:47:28;8.37;;;5.30;;
3280;SDS011;1652;51.318;6.202;2023-02-08T11:49:58;7.33;;;4.77;;
3280;SDS011;1652;51.318;6.202;2023-02-08T11:52:31;5.50;;;4.63;;
3280;SDS011;1652;51.318;6.202;2023-02-08T11:57:50;10.80;;;7.03;;
3280;SDS011;1652;51.318;6.202;2023-02-08T12:00:31;7.83;;;5.80;;
3280;SDS011;1652;51.318;6.202;2023-02-08T12:03:01;9.73;;;5.57;;
3280;SDS011;1652;51.318;6.202;2023-02-08T12:08:56;4.00;;;3.70;;
3280;SDS011;1652;51.318;6.202;2023-02-08T12:14:22;7.20;;;4.20;;
3280;SDS011;1652;51.318;6.202;2023-02-08T12:22:39;4.20;;;3.90;;
3280;SDS011;1652;51.318;6.202;2023-02-08T12:33:14;4.47;;;3.67;;
3280;SDS011;1652;51.318;6.202;2023-02-08T12:36:06;7.43;;;4.80;;
3280;SDS011;1652;51.318;6.202;2023-02-08T12:39:11;4.60;;;4.17;;
3280;SDS011;1652;51.318;6.202;2023-02-08T12:44:46;5.77;;;5.23;;
3280;SDS011;1652;51.318;6.202;2023-02-08T12:53:22;4.93;;;4.50;;
3280;SDS011;1652;51.318;6.202;2023-02-08T12:55:57;3.50;;;3.27;;
3280;SDS011;1652;51.318;6.202;2023-02-08T12:58:30;7.50;;;4.40;;
3280;SDS011;1652;51.318;6.202;2023-02-08T13:01:08;3.90;;;3.70;;
3280;SDS011;1652;51.318;6.202;2023-02-08T13:06:27;7.03;;;4.90;;
3280;SDS011;1652;51.318;6.202;2023-02-08T13:09:07;3.77;;;3.37;;
3280;SDS011;1652;51.318;6.202;2023-02-08T13:11:53;3.47;;;3.27;;
3280;SDS011;1652;51.318;6.202;2023-02-08T13:14:32;3.67;;;3.37;;
3280;SDS011;1652;51.318;6.202;2023-02-08T13:17:17;3.70;;;3.50;;
3280;SDS011;1652;51.318;6.202;2023-02-08T13:19:59;4.50;;;4.10;;
3280;SDS011;1652;51.318;6.202;2023-02-08T13:22:31;4.00;;;3.40;;
3280;SDS011;1652;51.318;6.202;2023-02-08T13:25:06;4.10;;;3.83;;
3280;SDS011;1652;51.318;6.202;2023-02-08T13:27:51;3.27;;;3.07;;
3280;SDS011;1652;51.318;6.202;2023-02-08T13:30:19;3.90;;;3.60;;
3280;SDS011;1652;51.318;6.202;2023-02-08T13:32:47;3.83;;;3.53;;
3280;SDS011;1652;51.318;6.202;2023-02-08T13:35:17;2.33;;;2.13;;
3280;SDS011;1652;51.318;6.202;2023-02-08T13:37:49;4.77;;;3.60;;
3280;SDS011;1652;51.318;6.202;2023-02-08T13:40:21;4.80;;;4.23;;
3280;SDS011;1652;51.318;6.202;2023-02-08T13:42:58;3.23;;;3.03;;
3280;SDS011;1652;51.318;6.202;2023-02-08T13:45:29;5.73;;;4.07;;
3280;SDS011;1652;51.318;6.202;2023-02-08T13:47:57;3.90;;;3.60;;
3280;SDS011;1652;51.318;6.202;2023-02-08T13:53:08;3.80;;;3.47;;
3280;SDS011;1652;51.318;6.202;2023-02-08T13:55:39;3.97;;;3.70;;
3280;SDS011;1652;51.318;6.202;2023-02-08T14:04:13;5.80;;;3.50;;
3280;SDS011;1652;51.318;6.202;2023-02-08T14:06:53;3.90;;;3.70;;
3280;SDS011;1652;51.318;6.202;2023-02-08T14:09:28;3.50;;;3.20;;
3280;SDS011;1652;51.318;6.202;2023-02-08T14:15:27;5.70;;;2.83;;
3280;SDS011;1652;51.318;6.202;2023-02-08T14:17:57;4.20;;;2.80;;
3280;SDS011;1652;51.318;6.202;2023-02-08T14:20:33;3.60;;;3.10;;
3280;SDS011;1652;51.318;6.202;2023-02-08T14:23:02;2.77;;;2.67;;
3280;SDS011;1652;51.318;6.202;2023-02-08T14:25:45;4.37;;;3.97;;
3280;SDS011;1652;51.318;6.202;2023-02-08T14:28:49;3.33;;;3.03;;
3280;SDS011;1652;51.318;6.202;2023-02-08T14:31:11;3.47;;;3.27;;
3280;SDS011;1652;51.318;6.202;2023-02-08T14:33:41;3.20;;;2.90;;
3280;SDS011;1652;51.318;6.202;2023-02-08T14:36:31;5.00;;;2.80;;
3280;SDS011;1652;51.318;6.202;2023-02-08T14:41:52;4.70;;;4.30;;
3280;SDS011;1652;51.318;6.202;2023-02-08T14:47:11;4.33;;;3.70;;
3280;SDS011;1652;51.318;6.202;2023-02-08T14:50:00;3.30;;;3.10;;
3280;SDS011;1652;51.318;6.202;2023-02-08T14:52:48;4.30;;;3.90;;
3280;SDS011;1652;51.318;6.202;2023-02-08T14:55:25;3.50;;;3.20;;
3280;SDS011;1652;51.318;6.202;2023-02-08T14:57:55;5.00;;;3.10;;
3280;SDS011;1652;51.318;6.202;2023-02-08T15:00:27;3.83;;;3.50;;
3280;SDS011;1652;51.318;6.202;2023-02-08T15:02:58;4.03;;;3.70;;
3280;SDS011;1652;51.318;6.202;2023-02-08T15:05:30;2.50;;;2.40;;
3280;SDS011;1652;51.318;6.202;2023-02-08T15:08:04;2.53;;;2.43;;
3280;SDS011;1652;51.318;6.202;2023-02-08T15:10:31;5.80;;;2.27;;
3280;SDS011;1652;51.318;6.202;2023-02-08T15:13:01;3.87;;;3.53;;
3280;SDS011;1652;51.318;6.202;2023-02-08T15:15:32;3.70;;;3.50;;
3280;SDS011;1652;51.318;6.202;2023-02-08T15:18:15;3.87;;;2.87;;
3280;SDS011;1652;51.318;6.202;2023-02-08T15:20:45;3.10;;;2.90;;
3280;SDS011;1652;51.318;6.202;2023-02-08T15:23:41;2.63;;;2.53;;
3280;SDS011;1652;51.318;6.202;2023-02-08T15:26:19;3.17;;;2.63;;
3280;SDS011;1652;51.318;6.202;2023-02-08T15:28:47;2.70;;;2.60;;
3280;SDS011;1652;51.318;6.202;2023-02-08T15:31:15;3.60;;;2.67;;
3280;SDS011;1652;51.318;6.202;2023-02-08T15:33:44;3.60;;;3.30;;
3280;SDS011;1652;51.318;6.202;2023-02-08T15:38:51;3.13;;;2.80;;
3280;SDS011;1652;51.318;6.202;2023-02-08T15:41:24;4.23;;;3.90;;
3280;SDS011;1652;51.318;6.202;2023-02-08T15:44:16;3.00;;;2.80;;
3280;SDS011;1652;51.318;6.202;2023-02-08T15:46:51;3.57;;;2.60;;
3280;SDS011;1652;51.318;6.202;2023-02-08T15:49:23;3.13;;;2.87;;
3280;SDS011;1652;51.318;6.202;2023-02-08T15:52:00;4.03;;;2.23;;
3280;SDS011;1652;51.318;6.202;2023-02-08T15:54:28;2.37;;;2.27;;
3280;SDS011;1652;51.318;6.202;2023-02-08T15:59:29;3.20;;;2.60;;
3280;SDS011;1652;51.318;6.202;2023-02-08T16:02:03;3.07;;;2.77;;
3280;SDS011;1652;51.318;6.202;2023-02-08T16:04:45;2.33;;;2.23;;
3280;SDS011;1652;51.318;6.202;2023-02-08T16:07:35;2.53;;;2.43;;
3280;SDS011;1652;51.318;6.202;2023-02-08T16:12:55;2.73;;;2.53;;
3280;SDS011;1652;51.318;6.202;2023-02-08T16:18:00;4.90;;;2.60;;
3280;SDS011;1652;51.318;6.202;2023-02-08T16:20:29;2.70;;;2.60;;
3280;SDS011;1652;51.318;6.202;2023-02-08T16:23:00;4.40;;;3.20;;
3280;SDS011;1652;51.318;6.202;2023-02-08T16:25:48;3.23;;;3.03;;
3280;SDS011;1652;51.318;6.202;2023-02-08T16:28:20;3.00;;;2.80;;
3280;SDS011;1652;51.318;6.202;2023-02-08T16:30:54;3.83;;;3.53;;
3280;SDS011;1652;51.318;6.202;2023-02-08T16:33:23;3.40;;;3.10;;
3280;SDS011;1652;51.318;6.202;2023-02-08T16:35:50;9.00;;;5.40;;
3280;SDS011;1652;51.318;6.202;2023-02-08T16:38:21;4.20;;;3.90;;
3280;SDS011;1652;51.318;6.202;2023-02-08T16:40:50;12.27;;;7.60;;
3280;SDS011;1652;51.318;6.202;2023-02-08T16:43:22;3.90;;;3.20;;
3280;SDS011;1652;51.318;6.202;2023-02-08T16:48:37;8.87;;;4.77;;
3280;SDS011;1652;51.318;6.202;2023-02-08T16:51:12;14.00;;;7.40;;
3280;SDS011;1652;51.318;6.202;2023-02-08T16:53:41;16.80;;;9.43;;
3280;SDS011;1652;51.318;6.202;2023-02-08T16:56:09;6.80;;;5.53;;
3280;SDS011;1652;51.318;6.202;2023-02-08T16:58:36;8.53;;;5.20;;
3280;SDS011;1652;51.318;6.202;2023-02-08T17:01:04;11.70;;;5.77;;
3280;SDS011;1652;51.318;6.202;2023-02-08T17:03:31;4.90;;;4.60;;
3280;SDS011;1652;51.318;6.202;2023-02-08T17:05:58;10.83;;;6.50;;
3280;SDS011;1652;51.318;6.202;2023-02-08T17:08:26;8.07;;;6.10;;
3280;SDS011;1652;51.318;6.202;2023-02-08T17:10:53;13.80;;;5.97;;
3280;SDS011;1652;51.318;6.202;2023-02-08T17:13:24;8.83;;;5.93;;
3280;SDS011;1652;51.318;6.202;2023-02-08T17:15:56;9.23;;;6.57;;
3280;SDS011;1652;51.318;6.202;2023-02-08T17:18:25;10.30;;;6.53;;
3280;SDS011;1652;51.318;6.202;2023-02-08T17:20:52;8.87;;;6.43;;
3280;SDS011;1652;51.318;6.202;2023-02-08T17:23:24;6.30;;;5.00;;
3280;SDS011;1652;51.318;6.202;2023-02-08T17:25:51;8.70;;;7.17;;
3280;SDS011;1652;51.318;6.202;2023-02-08T17:28:18;8.43;;;5.17;;
3280;SDS011;1652;51.318;6.202;2023-02-08T17:30:46;6.93;;;4.67;;
3280;SDS011;1652;51.318;6.202;2023-02-08T17:33:14;11.60;;;6.90;;
3280;SDS011;1652;51.318;6.202;2023-02-08T17:35:45;14.40;;;7.97;;
3280;SDS011;1652;51.318;6.202;2023-02-08T17:38:13;15.30;;;9.00;;